createdAt,value
2023-05-20T00:00:00.185Z,94.5
2023-05-20T00:05:00.177Z,94.6
2023-05-20T00:10:00.132Z,94.7
2023-05-20T00:15:00.187Z,94.7
2023-05-20T00:20:00.144Z,94.4
2023-05-20T00:25:00.148Z,94.9
2023-05-20T00:30:00.189Z,94.8
2023-05-20T00:35:00.154Z,95
2023-05-20T00:40:00.213Z,94.7
2023-05-20T00:45:00.171Z,94.7
2023-05-20T00:50:00.184Z,95.1
2023-05-20T00:55:00.119Z,94.9
2023-05-20T01:00:00.222Z,95
2023-05-20T01:05:00.159Z,95
2023-05-20T01:10:00.161Z,94.8
2023-05-20T01:15:00.149Z,95.1
2023-05-20T01:20:00.219Z,95.1
2023-05-20T01:25:00.145Z,95
2023-05-20T01:30:00.262Z,95
2023-05-20T01:35:00.207Z,95
2023-05-20T01:40:00.177Z,95
2023-05-20T01:45:00.141Z,95
2023-05-20T01:50:00.177Z,95
2023-05-20T01:55:00.148Z,94.7
2023-05-20T02:00:00.186Z,95.1
2023-05-20T02:05:00.151Z,95.2
2023-05-20T02:10:00.139Z,95.3
2023-05-20T02:15:00.152Z,95.5
2023-05-20T02:20:00.201Z,95.4
2023-05-20T02:25:00.149Z,95.5
2023-05-20T02:30:00.165Z,95.5
2023-05-20T02:35:00.169Z,95.6
2023-05-20T02:40:00.167Z,95.7
2023-05-20T02:45:00.161Z,95.6
2023-05-20T02:50:00.170Z,95.6
2023-05-20T02:55:00.141Z,95.6
2023-05-20T03:00:00.223Z,95.6
2023-05-20T03:05:00.150Z,95.6
2023-05-20T03:10:00.206Z,95.6
2023-05-20T03:15:00.165Z,95.7
2023-05-20T03:20:00.215Z,95.9
2023-05-20T03:25:00.127Z,96
2023-05-20T03:30:00.157Z,96.4
2023-05-20T03:35:00.130Z,96.6
2023-05-20T03:40:00.193Z,96.8
2023-05-20T03:45:00.148Z,97
2023-05-20T03:50:00.162Z,97.2
2023-05-20T03:55:00.181Z,97.2
2023-05-20T04:00:00.196Z,97.3
2023-05-20T04:05:00.182Z,97.6
2023-05-20T04:10:00.106Z,97.9
2023-05-20T04:15:00.151Z,98.2
2023-05-20T04:20:00.306Z,98.3
2023-05-20T04:25:00.154Z,98.2
2023-05-20T04:35:00.166Z,98
2023-05-20T04:40:00.201Z,97.7
2023-05-20T04:45:00.133Z,97.5
2023-05-20T04:50:00.199Z,97.2
2023-05-20T04:55:00.165Z,97.3
2023-05-20T05:00:00.233Z,97.4
2023-05-20T05:05:00.254Z,97.3
2023-05-20T05:10:00.134Z,97.1
2023-05-20T05:15:00.198Z,96.9
2023-05-20T05:20:00.180Z,96
2023-05-20T05:25:00.176Z,95.8
2023-05-20T05:30:00.166Z,96
2023-05-20T05:35:00.203Z,96
2023-05-20T05:40:00.222Z,95.9
2023-05-20T05:45:00.138Z,95.2
2023-05-20T05:50:00.329Z,94.7
2023-05-20T05:55:00.158Z,94.3
2023-05-20T06:00:00.202Z,94.5
2023-05-20T06:05:00.134Z,94.4
2023-05-20T06:10:00.181Z,93.6
2023-05-20T06:15:00.126Z,93.8
2023-05-20T06:20:00.154Z,94
2023-05-20T06:25:00.176Z,94.1
2023-05-20T06:30:00.195Z,94.1
2023-05-20T06:35:00.117Z,94
2023-05-20T06:40:00.198Z,94.1
2023-05-20T06:45:00.152Z,94
2023-05-20T06:50:00.114Z,94.1
2023-05-20T06:55:00.137Z,93.9
2023-05-20T07:00:00.188Z,94.3
2023-05-20T07:05:00.145Z,94.5
2023-05-20T07:10:00.106Z,94.4
2023-05-20T07:15:00.194Z,94.4
2023-05-20T07:20:00.154Z,94.6
2023-05-20T07:25:00.139Z,94.5
2023-05-20T07:30:00.143Z,94.6
2023-05-20T07:35:00.141Z,94.5
2023-05-20T07:40:00.233Z,94.4
2023-05-20T07:45:00.192Z,94.6
2023-05-20T07:50:00.098Z,93.7
2023-05-20T07:55:00.133Z,93.7
2023-05-20T08:00:00.208Z,92.8
2023-05-20T08:05:00.175Z,92.6
2023-05-20T08:10:00.196Z,92.1
2023-05-20T08:15:00.198Z,91.3
2023-05-20T08:20:00.219Z,90.3
2023-05-20T08:25:00.111Z,89.5
2023-05-20T08:30:00.884Z,89.3
2023-05-20T08:35:00.150Z,87.8
2023-05-20T08:40:00.142Z,87.2
2023-05-20T08:45:00.164Z,86
2023-05-20T08:50:00.099Z,86
2023-05-20T08:55:00.121Z,85.5
2023-05-20T09:00:00.314Z,86.5
2023-05-20T09:05:00.147Z,86
2023-05-20T09:10:00.172Z,86.2
2023-05-20T09:15:00.150Z,84.2
2023-05-20T09:20:00.180Z,84.3
2023-05-20T09:25:00.138Z,82.1
2023-05-20T09:30:00.200Z,79.1
2023-05-20T09:35:00.126Z,79.4
2023-05-20T09:40:00.201Z,81
2023-05-20T09:45:00.176Z,83.2
2023-05-20T09:50:00.193Z,78.8
2023-05-20T09:55:00.169Z,78.6
2023-05-20T10:00:00.194Z,78.5
2023-05-20T10:05:00.133Z,78
2023-05-20T10:10:00.142Z,76.8
2023-05-20T10:15:00.124Z,75.5
2023-05-20T10:20:00.211Z,72
2023-05-20T10:25:00.157Z,68.9
2023-05-20T10:30:00.257Z,65.2
2023-05-20T10:35:00.185Z,65
2023-05-20T10:40:00.158Z,60.5
2023-05-20T10:45:00.179Z,58.7
2023-05-20T10:50:00.146Z,54
2023-05-20T10:55:00.142Z,55.7
2023-05-20T11:00:00.158Z,54.8
2023-05-20T11:05:00.123Z,54.6
2023-05-20T11:10:00.174Z,55.6
2023-05-20T11:15:00.175Z,54.5
2023-05-20T11:20:00.219Z,53.8
2023-05-20T11:25:00.165Z,54.8
2023-05-20T11:30:00.229Z,53.7
2023-05-20T11:35:00.183Z,53.3
2023-05-20T11:40:00.190Z,53.5
2023-05-20T11:45:01.254Z,54.4
2023-05-20T11:50:00.110Z,55.9
2023-05-20T11:55:00.136Z,60.2
2023-05-20T12:00:00.203Z,62
2023-05-20T12:05:00.157Z,63.9
2023-05-20T12:10:00.224Z,67
2023-05-20T12:15:00.138Z,68.2
2023-05-20T12:20:00.164Z,68.7
2023-05-20T12:25:00.164Z,69.5
2023-05-20T12:30:00.268Z,69.8
2023-05-20T12:35:00.134Z,69.1
2023-05-20T12:40:00.217Z,70.6
2023-05-20T12:45:00.135Z,71
2023-05-20T12:50:00.169Z,70.5
2023-05-20T12:55:00.211Z,70.6
2023-05-20T13:00:00.234Z,70.5
2023-05-20T13:05:00.138Z,70.9
2023-05-20T13:10:00.172Z,70.9
2023-05-20T13:15:00.165Z,70.1
2023-05-20T13:20:00.168Z,69.8
2023-05-20T13:25:00.107Z,69.7
2023-05-20T13:30:00.214Z,69.7
2023-05-20T13:35:00.168Z,69.7
2023-05-20T13:40:00.192Z,67.9
2023-05-20T13:45:00.189Z,68.2
2023-05-20T13:50:02.041Z,68.6
2023-05-20T13:55:00.184Z,68.4
2023-05-20T14:00:00.213Z,68.4
2023-05-20T14:05:00.156Z,68.1
2023-05-20T14:10:00.143Z,67.9
2023-05-20T14:15:00.168Z,67.5
2023-05-20T14:20:00.169Z,66.1
2023-05-20T14:25:00.148Z,65.3
2023-05-20T14:30:00.154Z,65.1
2023-05-20T14:35:00.175Z,64.8
2023-05-20T14:40:00.173Z,66.2
2023-05-20T14:45:00.143Z,65.7
2023-05-20T14:50:00.132Z,66.3
2023-05-20T14:55:00.172Z,65.4
2023-05-20T15:00:00.208Z,65.8
2023-05-20T15:05:00.112Z,66
2023-05-20T15:10:00.201Z,66
2023-05-20T15:15:00.124Z,65.4
2023-05-20T15:20:00.220Z,65.3
2023-05-20T15:25:00.110Z,65.2
2023-05-20T15:30:00.114Z,66.1
2023-05-20T15:35:01.871Z,65.4
2023-05-20T15:40:00.198Z,63.7
2023-05-20T15:45:00.122Z,63.5
2023-05-20T15:50:00.209Z,63.9
2023-05-20T15:55:00.107Z,64.5
2023-05-20T16:00:00.383Z,64.5
2023-05-20T16:05:00.137Z,65.5
2023-05-20T16:10:00.279Z,65.9
2023-05-20T16:15:00.146Z,65.6
2023-05-20T16:20:00.372Z,64.8
2023-05-20T16:25:00.099Z,64.1
2023-05-20T16:30:00.264Z,63.7
2023-05-20T16:35:00.147Z,63.8
2023-05-20T16:40:00.149Z,63
2023-05-20T16:45:00.150Z,62.7
2023-05-20T16:50:00.175Z,63.4
2023-05-20T16:55:00.115Z,63.8
2023-05-20T17:00:00.146Z,64.4
2023-05-20T17:05:00.140Z,65.1
2023-05-20T17:10:00.141Z,65.7
2023-05-20T17:15:00.153Z,66.5
2023-05-20T17:20:00.150Z,66.2
2023-05-20T17:25:00.130Z,67
2023-05-20T17:30:00.185Z,67.9
2023-05-20T17:35:00.149Z,68.9
2023-05-20T17:40:00.200Z,69.3
2023-05-20T17:45:00.137Z,69.8
2023-05-20T17:50:00.169Z,70.2
2023-05-20T17:55:00.132Z,70.3
2023-05-20T18:00:00.188Z,70.6
2023-05-20T18:05:00.138Z,71
2023-05-20T18:10:00.141Z,71.2
2023-05-20T18:15:00.149Z,71.4
2023-05-20T18:20:00.146Z,71.9
2023-05-20T18:25:00.171Z,72.4
2023-05-20T18:30:00.187Z,73.3
2023-05-20T18:35:00.111Z,73.7
2023-05-20T18:40:00.313Z,74.3
2023-05-20T18:45:00.158Z,74.5
2023-05-20T18:50:00.155Z,75.9
2023-05-20T18:55:00.168Z,76.6
2023-05-20T19:00:00.180Z,77.7
2023-05-20T19:05:00.215Z,78.9
2023-05-20T19:10:00.154Z,79.4
2023-05-20T19:15:00.153Z,81.1
2023-05-20T19:20:00.193Z,81.1
2023-05-20T19:25:00.130Z,81.6
2023-05-20T19:30:00.149Z,82
2023-05-20T19:35:00.137Z,82.5
2023-05-20T19:40:00.141Z,83.9
2023-05-20T19:45:00.144Z,84.4
2023-05-20T19:50:00.127Z,85.2
2023-05-20T19:55:00.106Z,85.9
2023-05-20T20:00:00.223Z,86.7
2023-05-20T20:05:00.305Z,86.9
2023-05-20T20:10:00.095Z,87.7
2023-05-20T20:15:00.139Z,88.6
2023-05-20T20:20:00.151Z,89.7
2023-05-20T20:25:00.140Z,90.2
2023-05-20T20:30:00.220Z,90.3
2023-05-20T20:35:00.143Z,90.8
2023-05-20T20:40:00.157Z,90.9
2023-05-20T20:45:00.156Z,91
2023-05-20T20:50:00.162Z,91.3
2023-05-20T20:55:00.142Z,91.5
2023-05-20T21:00:00.235Z,91.8
2023-05-20T21:05:00.192Z,91.9
2023-05-20T21:10:00.201Z,92.1
2023-05-20T21:15:00.178Z,92.4
2023-05-20T21:20:00.154Z,92.6
2023-05-20T21:25:00.123Z,92.9
2023-05-20T21:30:00.172Z,93.2
2023-05-20T21:35:00.142Z,93.5
2023-05-20T21:40:00.171Z,93.7
2023-05-20T21:45:00.229Z,93.8
2023-05-20T21:50:00.211Z,94
2023-05-20T21:55:00.158Z,94.2
2023-05-20T22:00:00.193Z,94.1
2023-05-20T22:05:00.119Z,94.7
2023-05-20T22:10:00.195Z,95.3
2023-05-20T22:15:00.154Z,97.2
2023-05-20T22:20:00.168Z,99.9
2023-05-20T22:25:00.109Z,99.1
2023-05-20T22:30:00.176Z,98.7
2023-05-20T22:35:00.226Z,98.9
2023-05-20T22:40:00.263Z,95.5
2023-05-20T22:45:00.175Z,95.6
2023-05-20T22:50:00.195Z,95.8
2023-05-20T22:55:00.125Z,96
2023-05-20T23:00:00.263Z,96.8
2023-05-20T23:05:00.190Z,97.2
2023-05-20T23:10:00.172Z,98.8
2023-05-20T23:15:00.154Z,96.9
2023-05-20T23:20:00.160Z,97.1
2023-05-20T23:25:00.161Z,96.8
2023-05-20T23:30:00.200Z,97.4
2023-05-20T23:35:00.177Z,98.4
2023-05-20T23:40:00.188Z,99.6
2023-05-20T23:45:00.138Z,99
2023-05-20T23:50:00.323Z,99.4
2023-05-20T23:55:00.366Z,99
